Milanville, Pennsylvania
Current Conditions -  °F | °C
As of 10:15 AM on Friday 19 Dec 2014 (Local Time) from KMSV Reporting Station
Overcast Overcast  
Wind Chill: 15°   Ceiling: 2100
Heat Index: 27°   Visibility: 10mi
Dew Point: 18°   Wind: 15mph
Humidity: 69%   Direction: 320°NW
Pressure: 30.04"   Gusts: 22mph
Location:  41.67°N, 75.07°W
Report Text: KMSV 191515Z AUTO 32013G19KT 10SM OVC021 M03/M08 A3004 RMK AO1
Loading
Personal Weather Stations






























Interactive Weather Map New forecast layout! Learn more

10-Day Weather Forecast

Advertisements
Track Severe Weather on mobile